Time;durP1;ratioP1;P1;durP2;ratioP2;P2;SDS_P1;SDS_P2;PMS_P1;PMS_P2;Temp;Humidity;BMP_temperature;BMP_pressure;BME280_temperature;BME280_humidity;BME280_pressure;Samples;Min_cycle;Max_cycle;Signal;HPM_P1;HPM_P2
2021/12/10 00:01:01;;;;;;;;;;;-0.50;99.90;;;;;;8326326;28;20002;-66
2021/12/10 00:05:04;;;;;;;;;;;-0.60;99.90;;;;;;8294292;28;19920;-66
2021/12/10 00:09:13;;;;;;;;;;;-0.70;99.90;;;;;;8312455;28;19909;-66
2021/12/10 00:13:14;;;;;;;;;;;-1.00;99.90;;;;;;8293591;28;19968;-66
2021/12/10 00:17:16;;;;;;;;;;;-1.20;99.90;;;;;;8293400;28;19918;-64
2021/12/10 00:21:17;;;;;;;;;;;-1.40;99.90;;;;;;8293643;28;19921;-66
2021/12/10 00:25:20;;;;;;;;;;;-1.50;99.90;;;;;;8326003;28;20347;-65
2021/12/10 00:29:20;;;;;;;;;;;-1.60;99.90;;;;;;8325725;28;19923;-66
2021/12/10 00:33:24;;;;;;;;;;;-1.50;99.90;;;;;;8308112;28;19913;-66
2021/12/10 00:37:25;;;;;;;;;;;-1.60;99.90;;;;;;8297971;28;19918;-66
2021/12/10 00:41:26;;;;;;;;;;;-1.60;99.90;;;;;;8323649;28;19967;-66
2021/12/10 00:45:26;;;;;;;;;;;-1.70;99.90;;;;;;8293215;28;20004;-66
2021/12/10 00:49:27;;;;;;;;;;;-1.80;99.90;;;;;;8275159;28;19924;-66
2021/12/10 00:53:27;;;;;;;;;;;-1.70;99.90;;;;;;8297395;28;19944;-67
2021/12/10 00:57:28;;;;;;;;;;;-1.90;99.90;;;;;;8313847;28;19991;-65
2021/12/10 01:01:31;;;;;;;;;;;-2.00;99.90;;;;;;8329416;28;19920;-65
2021/12/10 01:05:32;;;;;;;;;;;-1.90;99.90;;;;;;8280495;28;19996;-65
2021/12/10 01:09:34;;;;;;;;;;;-1.90;99.90;;;;;;8320592;28;20285;-65
2021/12/10 01:13:37;;;;;;;;;;;-2.10;99.90;;;;;;8312924;28;19917;-65
2021/12/10 01:26:37;;;;;;;;;;;-2.20;99.90;;;;;;8330991;28;20411;-66
2021/12/10 01:30:38;;;;;;;;;;;-2.10;99.90;;;;;;8330046;28;20332;-66
2021/12/10 01:34:39;;;;;;;;;;;-2.20;99.90;;;;;;8285742;28;20611;-66
2021/12/10 01:38:42;;;;;;;;;;;-2.30;99.90;;;;;;8312185;28;20311;-66
2021/12/10 01:42:46;;;;;;;;;;;-2.40;99.90;;;;;;8310133;28;19917;-66
2021/12/10 01:46:48;;;;;;;;;;;-2.20;99.90;;;;;;8330020;28;19920;-65
2021/12/10 01:50:49;;;;;;;;;;;-2.60;99.90;;;;;;8329548;28;19909;-66
2021/12/10 01:54:55;;;;;;;;;;;-2.90;99.90;;;;;;8284090;28;19913;-65
2021/12/10 01:58:57;;;;;;;;;;;-3.10;99.90;;;;;;8296628;28;20425;-66
2021/12/10 02:02:57;;;;;;;;;;;-2.90;99.90;;;;;;8307266;28;19917;-66
2021/12/10 02:06:58;;;;;;;;;;;-3.10;99.90;;;;;;8328878;28;19913;-66
2021/12/10 02:10:59;;;;;;;;;;;-3.30;99.90;;;;;;8328321;28;19917;-64
2021/12/10 02:15:02;;;;;;;;;;;-3.40;99.90;;;;;;8300158;28;19921;-66
2021/12/10 02:19:03;;;;;;;;;;;-3.50;99.90;;;;;;8295743;28;19910;-65
2021/12/10 02:23:05;;;;;;;;;;;-3.40;99.90;;;;;;8306798;28;19921;-66
2021/12/10 02:27:07;;;;;;;;;;;-3.40;99.90;;;;;;8328282;28;19917;-66
2021/12/10 02:31:08;;;;;;;;;;;-3.50;99.90;;;;;;8310101;28;19931;-65
2021/12/10 02:35:11;;;;;;;;;;;-3.50;99.90;;;;;;8322918;28;19958;-65
2021/12/10 02:39:13;;;;;;;;;;;-3.40;99.90;;;;;;8327039;28;19979;-65
2021/12/10 02:43:16;;;;;;;;;;;-3.30;99.90;;;;;;8325782;28;20373;-65
2021/12/10 02:47:20;;;;;;;;;;;-3.20;99.90;;;;;;8309880;28;19972;-65
2021/12/10 02:51:21;;;;;;;;;;;-3.00;99.90;;;;;;8327416;28;20289;-65
2021/12/10 02:55:22;;;;;;;;;;;-3.10;99.90;;;;;;8297037;28;19996;-64
2021/12/10 02:59:22;;;;;;;;;;;-3.20;99.90;;;;;;8294634;28;19938;-66
2021/12/10 03:03:23;;;;;;;;;;;-3.30;99.90;;;;;;8307356;28;19917;-66
2021/12/10 03:07:24;;;;;;;;;;;-3.20;99.90;;;;;;8314788;28;20487;-67
2021/12/10 03:11:28;;;;;;;;;;;-3.60;99.90;;;;;;8326483;28;19913;-66
2021/12/10 03:15:29;;;;;;;;;;;-3.70;99.90;;;;;;8295285;28;19933;-65
2021/12/10 03:19:30;;;;;;;;;;;-3.70;99.90;;;;;;8293911;28;19977;-66
2021/12/10 03:23:30;;;;;;;;;;;-3.90;99.90;;;;;;8289897;28;19921;-66
2021/12/10 03:27:31;;;;;;;;;;;-4.00;99.90;;;;;;8309065;28;20285;-66
2021/12/10 03:31:31;;;;;;;;;;;-4.00;99.90;;;;;;8326555;28;20323;-66
2021/12/10 03:35:35;;;;;;;;;;;-3.80;99.90;;;;;;8295973;28;19937;-66
2021/12/10 03:39:35;;;;;;;;;;;-3.80;99.90;;;;;;8298321;28;19941;-65
2021/12/10 03:43:37;;;;;;;;;;;-3.50;99.90;;;;;;8311980;28;20292;-66
2021/12/10 03:47:37;;;;;;;;;;;-3.50;99.90;;;;;;8293717;28;20004;-65
2021/12/10 03:51:38;;;;;;;;;;;-3.20;99.90;;;;;;8293530;28;19979;-65
2021/12/10 03:55:38;;;;;;;;;;;-3.10;99.90;;;;;;8324018;28;19917;-66
2021/12/10 03:59:39;;;;;;;;;;;-3.10;99.90;;;;;;8325825;28;19909;-66
2021/12/10 04:03:41;;;;;;;;;;;-3.20;99.90;;;;;;8310640;28;19933;-65
2021/12/10 04:07:41;;;;;;;;;;;-3.10;99.90;;;;;;8300429;28;19944;-66
2021/12/10 04:11:42;;;;;;;;;;;-3.20;99.90;;;;;;8325356;28;19909;-65
2021/12/10 04:15:43;;;;;;;;;;;-3.40;99.90;;;;;;8294648;28;19967;-66
2021/12/10 04:19:45;;;;;;;;;;;-3.70;99.90;;;;;;8292782;28;19918;-66
2021/12/10 04:23:47;;;;;;;;;;;-3.80;99.90;;;;;;8307248;28;19917;-65
2021/12/10 04:27:48;;;;;;;;;;;-3.60;99.90;;;;;;8329277;28;19975;-66
2021/12/10 04:31:51;;;;;;;;;;;-3.70;99.90;;;;;;8331568;28;19909;-65
2021/12/10 04:35:54;;;;;;;;;;;-4.10;99.90;;;;;;8306338;28;19914;-65
2021/12/10 04:39:54;;;;;;;;;;;-4.00;99.90;;;;;;8330347;28;19916;-65
2021/12/10 04:43:55;;;;;;;;;;;-3.80;99.90;;;;;;8315714;28;19921;-65
2021/12/10 04:47:55;;;;;;;;;;;-3.90;99.90;;;;;;8333781;28;19955;-66
2021/12/10 04:51:56;;;;;;;;;;;-4.10;99.90;;;;;;8345587;28;19913;-66
2021/12/10 04:55:57;;;;;;;;;;;-4.10;99.90;;;;;;8345050;28;19924;-65
2021/12/10 04:59:57;;;;;;;;;;;-4.20;99.90;;;;;;8346497;28;19920;-65
2021/12/10 05:03:58;;;;;;;;;;;-3.80;99.90;;;;;;8332334;28;19963;-64
2021/12/10 05:07:58;;;;;;;;;;;-3.70;99.90;;;;;;8330163;28;19913;-65
2021/12/10 05:12:01;;;;;;;;;;;-3.90;99.90;;;;;;8319325;28;20005;-66
2021/12/10 05:16:02;;;;;;;;;;;-4.30;99.90;;;;;;8297598;28;20400;-65
2021/12/10 05:20:06;;;;;;;;;;;-4.20;99.90;;;;;;8279621;28;19917;-65
2021/12/10 05:24:08;;;;;;;;;;;-4.00;99.90;;;;;;8324362;28;20332;-66
2021/12/10 05:28:09;;;;;;;;;;;-4.30;99.90;;;;;;8312190;28;19968;-67
2021/12/10 05:32:11;;;;;;;;;;;-4.50;99.90;;;;;;8329018;28;20003;-66
2021/12/10 05:36:12;;;;;;;;;;;-4.60;99.90;;;;;;8312048;28;20413;-68
2021/12/10 05:40:13;;;;;;;;;;;-4.90;99.90;;;;;;8327615;28;20020;-66
2021/12/10 05:44:13;;;;;;;;;;;-4.80;99.90;;;;;;8301547;28;19980;-67
2021/12/10 05:48:14;;;;;;;;;;;-4.70;99.90;;;;;;8296679;28;19920;-67
2021/12/10 05:52:15;;;;;;;;;;;-4.90;99.90;;;;;;8307261;28;19979;-68
2021/12/10 05:56:16;;;;;;;;;;;-5.00;99.90;;;;;;8328766;28;19972;-67
2021/12/10 06:00:20;;;;;;;;;;;-5.00;99.90;;;;;;8327196;28;19956;-68
2021/12/10 06:04:26;;;;;;;;;;;-4.90;99.90;;;;;;8328135;28;19917;-67
2021/12/10 06:08:27;;;;;;;;;;;-5.00;99.90;;;;;;8328627;28;19909;-66
2021/12/10 06:12:27;;;;;;;;;;;-5.10;99.90;;;;;;8315732;28;20321;-66
2021/12/10 06:16:28;;;;;;;;;;;-4.90;99.90;;;;;;8325169;28;19951;-66
2021/12/10 06:20:30;;;;;;;;;;;-5.00;99.90;;;;;;8309532;28;19939;-67
2021/12/10 06:24:31;;;;;;;;;;;-5.10;99.90;;;;;;8326953;28;20016;-66
2021/12/10 06:28:32;;;;;;;;;;;-4.90;99.90;;;;;;8327617;28;19917;-67
2021/12/10 06:32:32;;;;;;;;;;;-4.90;99.90;;;;;;8318003;28;19913;-67
2021/12/10 06:36:35;;;;;;;;;;;-4.90;99.90;;;;;;8327381;28;20019;-66
2021/12/10 06:40:36;;;;;;;;;;;-4.80;99.90;;;;;;8308198;28;20087;-66
2021/12/10 06:44:37;;;;;;;;;;;-4.90;99.90;;;;;;8335039;28;20369;-67
2021/12/10 06:48:37;;;;;;;;;;;-4.80;99.90;;;;;;8302273;28;19917;-65
2021/12/10 06:52:38;;;;;;;;;;;-4.90;99.90;;;;;;8297493;28;19913;-66
2021/12/10 06:56:39;;;;;;;;;;;-4.90;99.90;;;;;;8330376;28;19921;-65
2021/12/10 07:00:52;;;;;;;;;;;-5.00;99.90;;;;;;8336373;28;19917;-66
2021/12/10 07:04:52;;;;;;;;;;;-5.10;99.90;;;;;;8328605;28;19975;-67
2021/12/10 07:08:54;;;;;;;;;;;-5.30;99.90;;;;;;8321991;28;19917;-65
2021/12/10 07:12:55;;;;;;;;;;;-5.20;99.90;;;;;;8312928;28;19914;-65
2021/12/10 07:16:55;;;;;;;;;;;-5.30;99.90;;;;;;8322205;28;19924;-65
2021/12/10 07:20:56;;;;;;;;;;;-5.10;99.90;;;;;;8325841;28;20485;-65
2021/12/10 07:24:57;;;;;;;;;;;-4.90;99.90;;;;;;8325784;28;19920;-64
2021/12/10 07:28:58;;;;;;;;;;;-5.00;99.90;;;;;;8324160;28;20054;-66
2021/12/10 07:32:59;;;;;;;;;;;-4.90;99.90;;;;;;8337959;28;19920;-65
2021/12/10 07:36:59;;;;;;;;;;;-4.70;99.90;;;;;;8340138;28;19956;-66
2021/12/10 07:41:00;;;;;;;;;;;-4.40;99.90;;;;;;8331655;28;20309;-66
2021/12/10 07:45:01;;;;;;;;;;;-4.30;99.90;;;;;;8333758;28;19921;-65
2021/12/10 07:49:02;;;;;;;;;;;-4.50;99.90;;;;;;8323850;28;19916;-66
2021/12/10 07:53:03;;;;;;;;;;;-4.30;99.90;;;;;;8339299;28;19928;-67
2021/12/10 07:57:03;;;;;;;;;;;-4.30;99.90;;;;;;8337361;28;19921;-67
2021/12/10 08:01:05;;;;;;;;;;;-4.10;99.90;;;;;;8317147;28;19970;-65
2021/12/10 08:05:06;;;;;;;;;;;-4.10;99.90;;;;;;8328686;28;19920;-66
2021/12/10 08:09:09;;;;;;;;;;;-3.80;99.90;;;;;;8327894;28;19925;-66
2021/12/10 08:13:09;;;;;;;;;;;-3.90;99.90;;;;;;8331013;28;19944;-67
2021/12/10 08:17:10;;;;;;;;;;;-3.60;99.90;;;;;;8309245;28;20587;-66
2021/12/10 08:21:11;;;;;;;;;;;-3.60;99.90;;;;;;8336652;28;19916;-67
2021/12/10 08:25:12;;;;;;;;;;;-3.50;99.90;;;;;;8322454;28;20309;-66
2021/12/10 08:29:15;;;;;;;;;;;-3.30;99.90;;;;;;8313415;28;19917;-67
2021/12/10 08:33:17;;;;;;;;;;;-3.00;99.90;;;;;;8327076;28;19921;-66
2021/12/10 08:37:17;;;;;;;;;;;-2.60;99.90;;;;;;8330498;28;19909;-66
2021/12/10 08:41:20;;;;;;;;;;;-2.60;99.90;;;;;;8328778;28;20304;-66
2021/12/10 08:45:22;;;;;;;;;;;-2.50;99.90;;;;;;8325040;28;19967;-66
2021/12/10 08:49:23;;;;;;;;;;;-2.40;99.90;;;;;;8321185;28;20011;-67
2021/12/10 08:53:24;;;;;;;;;;;-2.40;99.90;;;;;;8328838;28;19986;-65
2021/12/10 08:57:24;;;;;;;;;;;-2.40;99.90;;;;;;8312010;28;19937;-67
2021/12/10 09:01:27;;;;;;;;;;;-2.20;99.90;;;;;;8311960;28;20412;-67
2021/12/10 09:05:28;;;;;;;;;;;-2.00;99.90;;;;;;8319576;28;19964;-67
2021/12/10 09:09:30;;;;;;;;;;;-1.80;99.90;;;;;;8310602;28;19918;-66
2021/12/10 09:13:30;;;;;;;;;;;-1.60;99.90;;;;;;8329659;28;19909;-66
2021/12/10 09:17:31;;;;;;;;;;;-1.50;99.90;;;;;;8305102;28;19913;-66
2021/12/10 09:21:34;;;;;;;;;;;-1.40;99.90;;;;;;8327268;28;20381;-66
2021/12/10 09:25:35;;;;;;;;;;;-1.30;99.90;;;;;;8324000;28;19913;-66
2021/12/10 09:29:39;;;;;;;;;;;-1.10;99.90;;;;;;8311480;28;19921;-65
2021/12/10 09:33:39;;;;;;;;;;;-0.80;99.90;;;;;;8327297;28;20004;-67
2021/12/10 09:37:40;;;;;;;;;;;-0.70;99.90;;;;;;8326320;28;20411;-67
2021/12/10 09:41:41;;;;;;;;;;;-0.70;99.90;;;;;;8339936;28;19917;-66
2021/12/10 09:45:43;;;;;;;;;;;-0.60;99.90;;;;;;8344440;28;19955;-66
2021/12/10 09:49:44;;;;;;;;;;;-0.30;99.90;;;;;;8319089;28;20474;-66
2021/12/10 09:53:47;;;;;;;;;;;-0.10;99.90;;;;;;8340939;28;20516;-66
2021/12/10 09:57:48;;;;;;;;;;;0.20;99.90;;;;;;8310735;28;19917;-66
2021/12/10 10:01:52;;;;;;;;;;;0.10;99.90;;;;;;8326990;28;20343;-67
2021/12/10 10:05:53;;;;;;;;;;;-0.30;99.90;;;;;;8335944;28;19979;-67
2021/12/10 10:09:56;;;;;;;;;;;-0.10;99.90;;;;;;8328592;28;20396;-67
2021/12/10 10:13:57;;;;;;;;;;;0.30;99.90;;;;;;8339868;28;19920;-66
2021/12/10 10:17:59;;;;;;;;;;;0.80;99.90;;;;;;8323913;28;19936;-68
2021/12/10 10:22:01;;;;;;;;;;;0.90;99.90;;;;;;8310877;28;20345;-67
2021/12/10 10:26:03;;;;;;;;;;;0.70;99.90;;;;;;8309263;28;19917;-66
2021/12/10 10:30:07;;;;;;;;;;;0.60;99.90;;;;;;8316371;28;19916;-67
2021/12/10 10:34:09;;;;;;;;;;;0.30;99.90;;;;;;8321603;28;19916;-66
2021/12/10 10:38:10;;;;;;;;;;;0.20;99.90;;;;;;8322860;28;19909;-66
2021/12/10 10:42:14;;;;;;;;;;;0.40;99.90;;;;;;8305615;28;20304;-67
2021/12/10 10:46:15;;;;;;;;;;;0.50;99.90;;;;;;8308896;28;19913;-66
2021/12/10 10:50:18;;;;;;;;;;;0.30;99.90;;;;;;8325732;28;20419;-66
2021/12/10 10:54:18;;;;;;;;;;;0.30;99.90;;;;;;8326191;28;19948;-66
2021/12/10 10:58:19;;;;;;;;;;;0.30;99.90;;;;;;8324079;28;20393;-66
2021/12/10 11:02:20;;;;;;;;;;;0.50;99.90;;;;;;8308145;28;19917;-67
2021/12/10 11:06:24;;;;;;;;;;;0.70;99.90;;;;;;8322307;28;19921;-67
2021/12/10 11:10:40;;;;;;;;;;;0.70;99.90;;;;;;8319869;28;19940;-66
2021/12/10 11:14:42;;;;;;;;;;;0.60;99.90;;;;;;8314238;28;20274;-67
2021/12/10 11:18:46;;;;;;;;;;;0.50;99.90;;;;;;8325820;28;19913;-67
2021/12/10 11:22:51;;;;;;;;;;;0.70;99.90;;;;;;8298318;28;19921;-65
2021/12/10 11:27:03;;;;;;;;;;;1.00;99.90;;;;;;8351819;22;20727;-63
2021/12/10 11:31:07;;;;;;;;;;;1.40;99.90;;;;;;8320525;28;19913;-64
2021/12/10 11:35:08;;;;;;;;;;;1.60;99.90;;;;;;8317678;28;19921;-63
2021/12/10 11:39:10;;;;;;;;;;;1.60;99.90;;;;;;8290584;28;19913;-63
2021/12/10 11:44:19;;;;;;;;;;;1.80;99.90;;;;;;8291110;28;19925;-62
2021/12/10 11:47:48;;;;;;;;;;;1.80;99.90;;;;;;8284837;28;19917;-63
2021/12/10 11:51:54;;;;;;;;;;;2.00;99.90;;;;;;8308482;28;20375;-63
2021/12/10 11:55:58;;;;;;;;;;;2.20;99.90;;;;;;8307066;28;19914;-63
2021/12/10 12:00:01;;;;;;;;;;;2.10;99.90;;;;;;8301551;28;19951;-64
2021/12/10 12:04:28;;;;;;;;;;;1.90;99.90;;;;;;8303946;28;19920;-62
2021/12/10 12:08:31;;;;;;;;;;;1.90;99.90;;;;;;8278025;28;19914;-64
2021/12/10 12:12:38;;;;;;;;;;;1.70;99.90;;;;;;8304841;28;19964;-63
2021/12/10 12:16:39;;;;;;;;;;;1.80;99.90;;;;;;8312988;28;19966;-63
2021/12/10 12:20:44;;;;;;;;;;;1.90;99.90;;;;;;8291960;28;19913;-63
2021/12/10 12:24:57;;;;;;;;;;;1.90;99.90;;;;;;8292429;28;20411;-63
2021/12/10 12:29:08;;;;;;;;;;;1.90;99.90;;;;;;8290298;28;19921;-63
2021/12/10 12:33:10;;;;;;;;;;;1.90;99.90;;;;;;8289638;28;20301;-63
2021/12/10 12:37:11;;;;;;;;;;;1.60;99.90;;;;;;8291162;28;19914;-63
2021/12/10 12:41:18;;;;;;;;;;;1.70;99.90;;;;;;8273480;28;20321;-63
2021/12/10 12:45:23;;;;;;;;;;;1.70;99.90;;;;;;8292936;28;20378;-63
2021/12/10 12:49:24;;;;;;;;;;;1.70;99.90;;;;;;8294511;28;19922;-63
2021/12/10 12:53:29;;;;;;;;;;;1.40;99.90;;;;;;8318972;28;19945;-63
2021/12/10 12:57:42;;;;;;;;;;;1.60;99.90;;;;;;8296928;28;19920;-63
2021/12/10 13:01:54;;;;;;;;;;;1.70;99.90;;;;;;8295130;28;19921;-64
2021/12/10 13:05:57;;;;;;;;;;;1.70;99.90;;;;;;8295413;28;20004;-63
2021/12/10 13:10:02;;;;;;;;;;;1.80;99.90;;;;;;8296318;28;20008;-63
2021/12/10 13:14:03;;;;;;;;;;;2.00;99.90;;;;;;8277673;28;20366;-63
2021/12/10 13:18:05;;;;;;;;;;;2.00;99.90;;;;;;8279614;28;19913;-63
2021/12/10 13:22:08;;;;;;;;;;;2.10;99.90;;;;;;8301914;28;19944;-63
2021/12/10 13:26:11;;;;;;;;;;;1.90;99.90;;;;;;8291161;28;19960;-63
2021/12/10 13:30:17;;;;;;;;;;;1.70;99.90;;;;;;8302184;28;19917;-63
2021/12/10 13:34:18;;;;;;;;;;;1.60;99.90;;;;;;8302776;28;19917;-63
2021/12/10 13:38:20;;;;;;;;;;;1.70;99.90;;;;;;8294352;28;20305;-63
2021/12/10 13:42:21;;;;;;;;;;;1.60;99.90;;;;;;8276704;28;20009;-62
2021/12/10 13:46:23;;;;;;;;;;;1.40;99.90;;;;;;8298961;28;20389;-62
2021/12/10 13:50:25;;;;;;;;;;;1.00;99.90;;;;;;8273836;28;20281;-63
2021/12/10 13:54:25;;;;;;;;;;;0.90;99.90;;;;;;8276713;28;19922;-62
2021/12/10 13:58:33;;;;;;;;;;;0.70;99.90;;;;;;8302733;28;19920;-63
2021/12/10 14:02:36;;;;;;;;;;;0.70;99.90;;;;;;8306662;28;19921;-62
2021/12/10 14:06:42;;;;;;;;;;;0.70;99.90;;;;;;8302054;28;19922;-62
2021/12/10 14:10:44;;;;;;;;;;;0.60;99.90;;;;;;8295559;28;19956;-63
2021/12/10 14:14:49;;;;;;;;;;;0.50;99.90;;;;;;8323781;28;20009;-62
2021/12/10 14:18:49;;;;;;;;;;;0.60;99.90;;;;;;8327227;28;19920;-62
2021/12/10 14:22:55;;;;;;;;;;;0.70;99.90;;;;;;8295034;28;20289;-62
2021/12/10 14:27:07;;;;;;;;;;;0.70;99.90;;;;;;8318742;28;19924;-62
2021/12/10 14:31:18;;;;;;;;;;;0.60;99.90;;;;;;8304279;28;19918;-62
2021/12/10 14:35:23;;;;;;;;;;;0.60;99.90;;;;;;8315573;28;19913;-62
2021/12/10 14:39:23;;;;;;;;;;;0.60;99.90;;;;;;8304631;28;19918;-62
2021/12/10 14:43:26;;;;;;;;;;;0.70;99.90;;;;;;8307291;28;20340;-62
2021/12/10 14:47:26;;;;;;;;;;;0.80;99.90;;;;;;8311231;28;19913;-62
2021/12/10 14:51:28;;;;;;;;;;;0.80;99.90;;;;;;8302901;28;19940;-62
2021/12/10 14:55:30;;;;;;;;;;;0.90;99.90;;;;;;8293850;28;20520;-62
2021/12/10 14:59:40;;;;;;;;;;;0.90;99.90;;;;;;8293711;28;20004;-62
2021/12/10 15:03:45;;;;;;;;;;;1.00;99.90;;;;;;8292067;28;19921;-62
2021/12/10 15:07:47;;;;;;;;;;;1.20;99.90;;;;;;8274827;28;20017;-61
2021/12/10 15:11:56;;;;;;;;;;;1.20;99.90;;;;;;8292784;28;20408;-62
2021/12/10 15:16:04;;;;;;;;;;;1.20;99.90;;;;;;8275262;28;19920;-62
2021/12/10 15:20:25;;;;;;;;;;;1.30;99.90;;;;;;8288939;28;19920;-62
2021/12/10 15:24:33;;;;;;;;;;;1.30;99.90;;;;;;8312809;28;19917;-62
2021/12/10 15:28:38;;;;;;;;;;;1.30;99.90;;;;;;8284840;28;19921;-62
2021/12/10 15:32:38;;;;;;;;;;;1.30;99.90;;;;;;8290916;28;19979;-62
2021/12/10 15:36:39;;;;;;;;;;;1.30;99.90;;;;;;8291873;28;19922;-63
2021/12/10 15:40:43;;;;;;;;;;;1.40;99.90;;;;;;8294042;28;19944;-62
2021/12/10 15:44:43;;;;;;;;;;;1.50;99.90;;;;;;8299528;28;19917;-62
2021/12/10 15:48:46;;;;;;;;;;;1.40;99.90;;;;;;8306888;28;20000;-62
2021/12/10 15:52:53;;;;;;;;;;;1.40;99.90;;;;;;8308320;28;19920;-63
2021/12/10 15:57:20;;;;;;;;;;;1.50;99.90;;;;;;8311133;28;19931;-63
2021/12/10 16:01:27;;;;;;;;;;;1.60;99.90;;;;;;8267511;28;19971;-62
2021/12/10 16:05:27;;;;;;;;;;;1.60;99.90;;;;;;8273387;28;19914;-62
2021/12/10 16:09:28;;;;;;;;;;;1.60;99.90;;;;;;8290442;28;19917;-62
2021/12/10 16:13:29;;;;;;;;;;;1.70;99.90;;;;;;8291323;28;19914;-63
2021/12/10 16:17:29;;;;;;;;;;;1.70;99.90;;;;;;8293477;28;19913;-62
2021/12/10 16:21:36;;;;;;;;;;;1.70;99.90;;;;;;8290069;28;19925;-62
2021/12/10 16:25:39;;;;;;;;;;;1.70;99.90;;;;;;8298081;28;20332;-62
2021/12/10 16:29:42;;;;;;;;;;;1.80;99.90;;;;;;8297504;28;19917;-62
2021/12/10 16:33:43;;;;;;;;;;;1.80;99.90;;;;;;8297085;28;20428;-63
2021/12/10 16:37:45;;;;;;;;;;;1.90;99.90;;;;;;8307491;28;19928;-62
2021/12/10 16:41:49;;;;;;;;;;;1.90;99.90;;;;;;8297722;28;19933;-62
2021/12/10 16:45:52;;;;;;;;;;;2.00;99.90;;;;;;8280491;28;19940;-62
2021/12/10 16:49:53;;;;;;;;;;;2.00;99.90;;;;;;8279044;28;19917;-62
2021/12/10 16:53:55;;;;;;;;;;;2.00;99.90;;;;;;8296510;28;20466;-62
2021/12/10 16:57:58;;;;;;;;;;;2.10;99.90;;;;;;8306343;28;19913;-61
2021/12/10 17:02:01;;;;;;;;;;;2.10;99.90;;;;;;8300823;28;19971;-62
2021/12/10 17:06:02;;;;;;;;;;;2.10;99.90;;;;;;8317920;28;20416;-62
2021/12/10 17:10:09;;;;;;;;;;;2.10;99.90;;;;;;8303057;28;19913;-62
2021/12/10 17:14:21;;;;;;;;;;;2.10;99.90;;;;;;8264921;28;20003;-62
2021/12/10 17:18:23;;;;;;;;;;;2.20;99.90;;;;;;8294492;28;19936;-64
2021/12/10 17:22:26;;;;;;;;;;;2.20;99.90;;;;;;8278093;28;19918;-64
2021/12/10 17:26:28;;;;;;;;;;;2.20;99.90;;;;;;8272543;28;20259;-64
2021/12/10 17:30:34;;;;;;;;;;;2.20;99.90;;;;;;8266339;28;19936;-64
2021/12/10 17:34:36;;;;;;;;;;;2.20;99.90;;;;;;8264805;28;19936;-64
2021/12/10 17:38:40;;;;;;;;;;;2.10;99.90;;;;;;8266681;28;20405;-64
2021/12/10 17:42:41;;;;;;;;;;;2.20;99.90;;;;;;8279308;28;19925;-64
2021/12/10 17:46:51;;;;;;;;;;;2.20;99.90;;;;;;8276958;28;20003;-65
2021/12/10 17:50:52;;;;;;;;;;;2.20;99.90;;;;;;8293454;28;20403;-64
2021/12/10 17:54:54;;;;;;;;;;;2.20;99.90;;;;;;8283681;28;19910;-65
2021/12/10 17:58:55;;;;;;;;;;;2.20;99.90;;;;;;8272501;28;19996;-64
2021/12/10 18:02:58;;;;;;;;;;;2.30;99.90;;;;;;8263377;28;19918;-64
2021/12/10 18:07:00;;;;;;;;;;;2.30;99.90;;;;;;8265680;28;20008;-64
2021/12/10 18:11:03;;;;;;;;;;;2.30;99.90;;;;;;8289930;28;20044;-64
2021/12/10 18:15:07;;;;;;;;;;;2.20;99.90;;;;;;8291374;28;20305;-64
2021/12/10 18:19:08;;;;;;;;;;;2.30;99.90;;;;;;8294623;28;19921;-64
2021/12/10 18:23:10;;;;;;;;;;;2.30;99.90;;;;;;8294749;28;20000;-64
2021/12/10 18:27:10;;;;;;;;;;;2.20;99.90;;;;;;8294295;28;20335;-64
2021/12/10 18:31:14;;;;;;;;;;;2.20;99.90;;;;;;8299932;28;19947;-64
2021/12/10 18:35:17;;;;;;;;;;;2.20;99.90;;;;;;8294760;28;19909;-63
2021/12/10 18:39:24;;;;;;;;;;;2.20;99.90;;;;;;8294523;28;20292;-64
2021/12/10 18:43:27;;;;;;;;;;;2.20;99.90;;;;;;8294291;28;19917;-63
2021/12/10 18:47:27;;;;;;;;;;;2.20;99.90;;;;;;8276791;28;19972;-64
2021/12/10 18:51:31;;;;;;;;;;;2.20;99.90;;;;;;8293862;28;19951;-63
2021/12/10 18:55:33;;;;;;;;;;;2.30;99.90;;;;;;8293712;28;19914;-63
2021/12/10 18:59:36;;;;;;;;;;;2.30;99.90;;;;;;8275711;28;19914;-65
2021/12/10 19:03:43;;;;;;;;;;;2.30;99.90;;;;;;8276435;28;19956;-63
2021/12/10 19:07:51;;;;;;;;;;;2.30;99.90;;;;;;8271670;28;20313;-63
2021/12/10 19:11:54;;;;;;;;;;;2.30;99.90;;;;;;8292917;28;20008;-63
2021/12/10 19:15:57;;;;;;;;;;;2.30;99.90;;;;;;8293458;28;19920;-63
2021/12/10 19:20:06;;;;;;;;;;;2.30;99.90;;;;;;8293748;28;19920;-63
2021/12/10 19:24:09;;;;;;;;;;;2.30;99.90;;;;;;8276358;28;19917;-63
2021/12/10 19:28:24;;;;;;;;;;;2.30;99.90;;;;;;8278223;28;19924;-63
2021/12/10 19:32:27;;;;;;;;;;;2.40;99.90;;;;;;8292780;28;20262;-63
2021/12/10 19:36:33;;;;;;;;;;;2.30;99.90;;;;;;8293418;28;21378;-63
2021/12/10 19:40:34;;;;;;;;;;;2.40;99.90;;;;;;8293154;28;19920;-63
2021/12/10 19:44:39;;;;;;;;;;;2.30;99.90;;;;;;8293747;28;19914;-63
2021/12/10 19:48:46;;;;;;;;;;;2.40;99.90;;;;;;8293894;28;20385;-63
2021/12/10 19:52:49;;;;;;;;;;;2.40;99.90;;;;;;8292613;28;19913;-63
2021/12/10 19:56:56;;;;;;;;;;;2.40;99.90;;;;;;8293005;28;20394;-63
2021/12/10 20:01:17;;;;;;;;;;;2.30;99.90;;;;;;8292228;28;19963;-63
2021/12/10 20:05:21;;;;;;;;;;;2.30;99.90;;;;;;8292917;28;20397;-63
2021/12/10 20:09:25;;;;;;;;;;;2.40;99.90;;;;;;8292756;28;19910;-63
2021/12/10 20:13:41;;;;;;;;;;;2.30;99.90;;;;;;8293236;28;19909;-63
2021/12/10 20:17:44;;;;;;;;;;;2.30;99.90;;;;;;8291574;28;19910;-63
2021/12/10 20:21:50;;;;;;;;;;;2.40;99.90;;;;;;8292914;28;19913;-63
2021/12/10 20:26:00;;;;;;;;;;;2.40;99.90;;;;;;8293237;28;19971;-63
2021/12/10 20:30:17;;;;;;;;;;;2.40;99.90;;;;;;8292913;28;19917;-63
2021/12/10 20:34:20;;;;;;;;;;;2.40;99.90;;;;;;8293018;28;19949;-63
2021/12/10 20:38:30;;;;;;;;;;;2.40;99.90;;;;;;8292635;28;19913;-63
2021/12/10 20:42:33;;;;;;;;;;;2.40;99.90;;;;;;8292627;28;19920;-63
2021/12/10 20:46:36;;;;;;;;;;;2.30;99.90;;;;;;8292040;28;20000;-63
2021/12/10 20:50:45;;;;;;;;;;;2.40;99.90;;;;;;8292856;28;19968;-63
2021/12/10 20:54:47;;;;;;;;;;;2.40;99.90;;;;;;8291631;28;19928;-63
2021/12/10 20:59:00;;;;;;;;;;;2.40;99.90;;;;;;8292832;28;19920;-63
2021/12/10 21:03:03;;;;;;;;;;;2.40;99.90;;;;;;8292238;28;19968;-63
2021/12/10 21:07:09;;;;;;;;;;;2.40;99.90;;;;;;8290909;28;19975;-63
2021/12/10 21:11:12;;;;;;;;;;;2.40;99.90;;;;;;8297969;28;20324;-63
2021/12/10 21:15:15;;;;;;;;;;;2.40;99.90;;;;;;8298610;28;19910;-63
2021/12/10 21:19:18;;;;;;;;;;;2.40;99.90;;;;;;8297914;28;20381;-63
2021/12/10 21:23:24;;;;;;;;;;;2.50;99.90;;;;;;8297900;28;19961;-65
2021/12/10 21:27:27;;;;;;;;;;;2.40;99.90;;;;;;8297264;28;19918;-63
2021/12/10 21:31:34;;;;;;;;;;;2.40;99.90;;;;;;8298313;28;19913;-63
2021/12/10 21:35:45;;;;;;;;;;;2.40;99.90;;;;;;8280554;28;19921;-63
2021/12/10 21:39:47;;;;;;;;;;;2.40;99.90;;;;;;8297594;28;19913;-63
2021/12/10 21:43:53;;;;;;;;;;;2.30;99.90;;;;;;8297996;28;20016;-63
2021/12/10 21:47:54;;;;;;;;;;;2.40;99.90;;;;;;8280183;28;19910;-63
2021/12/10 21:52:06;;;;;;;;;;;2.40;99.90;;;;;;8279102;28;20297;-63
2021/12/10 21:56:08;;;;;;;;;;;2.40;99.90;;;;;;8279937;28;20295;-63
2021/12/10 22:00:22;;;;;;;;;;;2.40;99.90;;;;;;8296907;28;19910;-63
2021/12/10 22:04:24;;;;;;;;;;;2.40;99.90;;;;;;8296484;28;19918;-64
2021/12/10 22:08:38;;;;;;;;;;;2.40;99.90;;;;;;8278768;28;20289;-63
2021/12/10 22:12:42;;;;;;;;;;;2.50;99.90;;;;;;8278836;28;19920;-64
2021/12/10 22:17:05;;;;;;;;;;;2.40;99.90;;;;;;8296782;28;20455;-63
2021/12/10 22:21:09;;;;;;;;;;;2.40;99.90;;;;;;8294969;28;19914;-63
2021/12/10 22:25:12;;;;;;;;;;;2.40;99.90;;;;;;8296118;28;19920;-63
2021/12/10 22:29:15;;;;;;;;;;;2.40;99.90;;;;;;8288793;28;20262;-64
2021/12/10 22:33:28;;;;;;;;;;;2.40;99.90;;;;;;8296159;28;19980;-64
2021/12/10 22:37:31;;;;;;;;;;;2.40;99.90;;;;;;8297556;28;19917;-63
2021/12/10 22:41:38;;;;;;;;;;;2.40;99.90;;;;;;8289222;28;19913;-63
2021/12/10 22:45:45;;;;;;;;;;;2.40;99.90;;;;;;8292491;28;19917;-64
2021/12/10 22:49:51;;;;;;;;;;;2.40;99.90;;;;;;8288733;28;20355;-64
2021/12/10 22:53:55;;;;;;;;;;;2.40;99.90;;;;;;8295163;28;19917;-64
2021/12/10 22:57:59;;;;;;;;;;;2.30;99.90;;;;;;8304984;28;20020;-63
2021/12/10 23:02:02;;;;;;;;;;;2.30;99.90;;;;;;8282702;28;20347;-63
2021/12/10 23:06:08;;;;;;;;;;;2.30;99.90;;;;;;8294779;28;20000;-64
2021/12/10 23:10:11;;;;;;;;;;;2.40;99.90;;;;;;8293879;28;19913;-63
2021/12/10 23:14:14;;;;;;;;;;;2.30;99.90;;;;;;8294618;28;19983;-64
2021/12/10 23:18:19;;;;;;;;;;;2.30;99.90;;;;;;8294605;28;19952;-63
2021/12/10 23:22:19;;;;;;;;;;;2.30;99.90;;;;;;8294335;28;19921;-64
2021/12/10 23:26:20;;;;;;;;;;;2.30;99.90;;;;;;8294396;28;20485;-63
2021/12/10 23:30:28;;;;;;;;;;;2.30;99.90;;;;;;8293728;28;19913;-64
2021/12/10 23:34:30;;;;;;;;;;;2.30;99.90;;;;;;8294266;28;20337;-64
2021/12/10 23:38:39;;;;;;;;;;;2.30;99.90;;;;;;8293836;28;19983;-64
2021/12/10 23:42:41;;;;;;;;;;;2.30;99.90;;;;;;8275262;28;19914;-64
2021/12/10 23:46:45;;;;;;;;;;;2.30;99.90;;;;;;8293603;28;19988;-63
2021/12/10 23:50:48;;;;;;;;;;;2.30;99.90;;;;;;8298708;28;19917;-64
2021/12/10 23:54:51;;;;;;;;;;;2.30;99.90;;;;;;8278122;28;19922;-64